sensor_id;sensor_type;location;lat;lon;timestamp;pressure;altitude;pressure_sealevel;temperature;humidity
54146;BME280;40052;49.422;7.738;2022-09-23T00:01:12;75284.81;;;-145.25;72.83
54146;BME280;40052;49.422;7.738;2022-09-23T00:03:43;75302.84;;;-145.25;73.57
54146;BME280;40052;49.422;7.738;2022-09-23T00:06:12;75322.88;;;-145.25;74.14
54146;BME280;40052;49.422;7.738;2022-09-23T00:08:39;75336.91;;;-145.25;74.25
54146;BME280;40052;49.422;7.738;2022-09-23T00:11:09;75338.91;;;-145.25;75.28
54146;BME280;40052;49.422;7.738;2022-09-23T00:13:39;75326.91;;;-145.25;74.99
54146;BME280;40052;49.422;7.738;2022-09-23T00:16:07;75318.88;;;-145.25;75.08
54146;BME280;40052;49.422;7.738;2022-09-23T00:18:33;75302.84;;;-145.25;74.38
54146;BME280;40052;49.422;7.738;2022-09-23T00:21:09;75326.91;;;-145.25;74.45
54146;BME280;40052;49.422;7.738;2022-09-23T00:23:36;75358.97;;;-145.25;75.82
54146;BME280;40052;49.422;7.738;2022-09-23T00:26:04;75377.00;;;-145.25;76.82
54146;BME280;40052;49.422;7.738;2022-09-23T00:28:30;75383.00;;;-145.25;77.23
54146;BME280;40052;49.422;7.738;2022-09-23T00:31:05;75383.00;;;-145.25;77.13
54146;BME280;40052;49.422;7.738;2022-09-23T00:33:30;75383.00;;;-145.25;76.90
54146;BME280;40052;49.422;7.738;2022-09-23T00:36:04;75377.00;;;-145.25;76.61
54146;BME280;40052;49.422;7.738;2022-09-23T00:38:30;75383.00;;;-145.25;76.83
54146;BME280;40052;49.422;7.738;2022-09-23T00:40:58;75405.06;;;-145.25;77.52
54146;BME280;40052;49.422;7.738;2022-09-23T00:43:43;75395.03;;;-145.25;77.63
54146;BME280;40052;49.422;7.738;2022-09-23T00:46:11;75364.97;;;-145.25;76.54
54146;BME280;40052;49.422;7.738;2022-09-23T00:48:40;75377.00;;;-145.25;75.93
54146;BME280;40052;49.422;7.738;2022-09-23T00:51:12;75377.00;;;-145.25;75.99
54146;BME280;40052;49.422;7.738;2022-09-23T00:53:39;75399.06;;;-145.25;77.01
54146;BME280;40052;49.422;7.738;2022-09-23T00:56:07;75395.03;;;-145.25;77.76
54146;BME280;40052;49.422;7.738;2022-09-23T00:58:39;75393.03;;;-145.25;77.74
54146;BME280;40052;49.422;7.738;2022-09-23T01:01:05;75383.00;;;-145.25;77.63
54146;BME280;40052;49.422;7.738;2022-09-23T01:03:31;75393.03;;;-145.25;77.93
54146;BME280;40052;49.422;7.738;2022-09-23T01:05:57;75409.06;;;-145.25;78.50
54146;BME280;40052;49.422;7.738;2022-09-23T01:08:23;75389.03;;;-145.25;78.71
54146;BME280;40052;49.422;7.738;2022-09-23T01:13:51;75379.00;;;-145.25;75.91
54146;BME280;40052;49.422;7.738;2022-09-23T01:17:00;75385.03;;;-145.25;75.56
54146;BME280;40052;49.422;7.738;2022-09-23T01:24:47;75403.06;;;-145.25;76.75
54146;BME280;40052;49.422;7.738;2022-09-23T01:38:31;75368.97;;;-145.25;75.86
54146;BME280;40052;49.422;7.738;2022-09-23T01:46:19;75411.06;;;-145.25;75.91
54146;BME280;40052;49.422;7.738;2022-09-23T01:49:06;75427.09;;;-145.25;77.52
54146;BME280;40052;49.422;7.738;2022-09-23T01:51:59;75437.13;;;-145.25;77.80
54146;BME280;40052;49.422;7.738;2022-09-23T01:54:39;75429.13;;;-145.25;77.06
54146;BME280;40052;49.422;7.738;2022-09-23T01:57:15;75437.13;;;-145.25;76.38
54146;BME280;40052;49.422;7.738;2022-09-23T01:59:55;75451.16;;;-145.25;76.72
54146;BME280;40052;49.422;7.738;2022-09-23T02:02:31;75451.16;;;-145.25;76.72
54146;BME280;40052;49.422;7.738;2022-09-23T02:05:41;75453.16;;;-145.25;76.60
54146;BME280;40052;49.422;7.738;2022-09-23T02:13:01;75447.16;;;-145.25;76.54
54146;BME280;40052;49.422;7.738;2022-09-23T02:15:38;75455.16;;;-145.25;77.07
54146;BME280;40052;49.422;7.738;2022-09-23T02:18:14;75441.13;;;-145.25;77.40
54146;BME280;40052;49.422;7.738;2022-09-23T02:20:42;75427.09;;;-145.25;77.71
54146;BME280;40052;49.422;7.738;2022-09-23T02:26:04;75423.09;;;-145.25;77.45
54146;BME280;40052;49.422;7.738;2022-09-23T02:33:56;75437.13;;;-145.25;77.56
54146;BME280;40052;49.422;7.738;2022-09-23T02:39:13;75439.13;;;-145.25;77.33
54146;BME280;40052;49.422;7.738;2022-09-23T02:42:03;75463.19;;;-145.25;77.86
54146;BME280;40052;49.422;7.738;2022-09-23T02:44:32;75459.19;;;-145.25;77.94
54146;BME280;40052;49.422;7.738;2022-09-23T02:46:58;75447.16;;;-145.25;77.76
54146;BME280;40052;49.422;7.738;2022-09-23T02:49:28;75439.13;;;-145.25;77.60
54146;BME280;40052;49.422;7.738;2022-09-23T02:51:59;75431.13;;;-145.25;77.19
54146;BME280;40052;49.422;7.738;2022-09-23T02:54:29;75445.16;;;-145.25;77.37
54146;BME280;40052;49.422;7.738;2022-09-23T02:56:57;75455.16;;;-145.25;77.82
54146;BME280;40052;49.422;7.738;2022-09-23T02:59:28;75449.16;;;-145.25;77.74
54146;BME280;40052;49.422;7.738;2022-09-23T03:02:10;75449.16;;;-145.25;77.71
54146;BME280;40052;49.422;7.738;2022-09-23T03:18:10;75493.25;;;-145.25;77.89
54146;BME280;40052;49.422;7.738;2022-09-23T03:21:24;75471.22;;;-145.25;77.61
54146;BME280;40052;49.422;7.738;2022-09-23T03:23:30;75439.13;;;-145.25;76.69
54146;BME280;40052;49.422;7.738;2022-09-23T03:26:01;75457.19;;;-145.25;77.65
54146;BME280;40052;49.422;7.738;2022-09-23T03:28:29;75467.19;;;-145.25;77.45
54146;BME280;40052;49.422;7.738;2022-09-23T03:30:59;75447.16;;;-145.25;77.35
54146;BME280;40052;49.422;7.738;2022-09-23T03:33:25;75465.19;;;-145.25;77.86
54146;BME280;40052;49.422;7.738;2022-09-23T03:36:03;75465.19;;;-145.25;77.27
54146;BME280;40052;49.422;7.738;2022-09-23T03:38:56;75493.25;;;-145.25;76.93
54146;BME280;40052;49.422;7.738;2022-09-23T03:41:30;75493.25;;;-145.25;76.69
54146;BME280;40052;49.422;7.738;2022-09-23T03:43:57;75495.25;;;-145.25;76.88
54146;BME280;40052;49.422;7.738;2022-09-23T03:46:27;75479.22;;;-145.25;76.76
54146;BME280;40052;49.422;7.738;2022-09-23T03:49:05;75479.22;;;-145.25;76.98
54146;BME280;40052;49.422;7.738;2022-09-23T03:51:33;75473.22;;;-145.25;77.90
54146;BME280;40052;49.422;7.738;2022-09-23T03:53:59;75471.22;;;-145.25;78.26
54146;BME280;40052;49.422;7.738;2022-09-23T03:56:24;75477.22;;;-145.25;78.20
54146;BME280;40052;49.422;7.738;2022-09-23T03:58:49;75475.22;;;-145.25;78.19
54146;BME280;40052;49.422;7.738;2022-09-23T04:01:15;75477.22;;;-145.25;77.90
54146;BME280;40052;49.422;7.738;2022-09-23T04:03:40;75479.22;;;-145.25;78.11
54146;BME280;40052;49.422;7.738;2022-09-23T04:06:08;75495.25;;;-145.25;78.60
54146;BME280;40052;49.422;7.738;2022-09-23T04:08:36;75523.31;;;-145.25;79.51
54146;BME280;40052;49.422;7.738;2022-09-23T04:11:04;75515.31;;;-145.25;78.79
54146;BME280;40052;49.422;7.738;2022-09-23T04:13:30;75507.28;;;-145.25;77.65
54146;BME280;40052;49.422;7.738;2022-09-23T04:15:56;75499.28;;;-145.25;76.75
54146;BME280;40052;49.422;7.738;2022-09-23T04:18:21;75523.31;;;-145.25;76.72
54146;BME280;40052;49.422;7.738;2022-09-23T04:20:49;75495.25;;;-145.25;76.83
54146;BME280;40052;49.422;7.738;2022-09-23T04:23:14;75499.28;;;-145.25;77.27
54146;BME280;40052;49.422;7.738;2022-09-23T04:25:45;75509.28;;;-145.25;77.83
54146;BME280;40052;49.422;7.738;2022-09-23T04:28:13;75519.31;;;-145.25;78.98
54146;BME280;40052;49.422;7.738;2022-09-23T04:30:39;75501.28;;;-145.25;78.67
54146;BME280;40052;49.422;7.738;2022-09-23T04:33:06;75505.28;;;-145.25;78.39
54146;BME280;40052;49.422;7.738;2022-09-23T04:35:34;75511.28;;;-145.25;78.76
54146;BME280;40052;49.422;7.738;2022-09-23T04:38:01;75499.28;;;-145.25;79.01
54146;BME280;40052;49.422;7.738;2022-09-23T04:40:27;75485.25;;;-145.25;78.93
54146;BME280;40052;49.422;7.738;2022-09-23T04:42:52;75483.22;;;-145.25;78.86
54146;BME280;40052;49.422;7.738;2022-09-23T04:45:18;75491.25;;;-145.25;78.41
54146;BME280;40052;49.422;7.738;2022-09-23T04:47:43;75495.25;;;-145.25;78.20
54146;BME280;40052;49.422;7.738;2022-09-23T04:50:11;75501.28;;;-145.25;77.85
54146;BME280;40052;49.422;7.738;2022-09-23T04:52:41;75503.28;;;-145.25;78.08
54146;BME280;40052;49.422;7.738;2022-09-23T04:55:07;75525.31;;;-145.25;78.78
54146;BME280;40052;49.422;7.738;2022-09-23T04:57:35;75541.34;;;-145.25;79.49
54146;BME280;40052;49.422;7.738;2022-09-23T05:00:00;75541.34;;;-145.25;79.62
54146;BME280;40052;49.422;7.738;2022-09-23T05:02:28;75543.38;;;-145.25;79.77
54146;BME280;40052;49.422;7.738;2022-09-23T05:04:54;75549.38;;;-145.25;79.88
54146;BME280;40052;49.422;7.738;2022-09-23T05:07:19;75557.41;;;-145.25;80.60
54146;BME280;40052;49.422;7.738;2022-09-23T05:09:45;75555.38;;;-145.25;78.81
54146;BME280;40052;49.422;7.738;2022-09-23T05:12:10;75567.41;;;-145.25;78.48
54146;BME280;40052;49.422;7.738;2022-09-23T05:14:36;75569.41;;;-145.25;78.50
54146;BME280;40052;49.422;7.738;2022-09-23T05:17:03;75561.41;;;-145.25;78.41
54146;BME280;40052;49.422;7.738;2022-09-23T05:19:29;75567.41;;;-145.25;78.91
54146;BME280;40052;49.422;7.738;2022-09-23T05:21:56;75557.41;;;-145.25;79.48
54146;BME280;40052;49.422;7.738;2022-09-23T05:24:24;75551.38;;;-145.25;80.04
54146;BME280;40052;49.422;7.738;2022-09-23T05:26:50;75549.38;;;-145.25;80.06
54146;BME280;40052;49.422;7.738;2022-09-23T05:29:18;75555.38;;;-145.25;80.56
54146;BME280;40052;49.422;7.738;2022-09-23T05:31:44;75557.41;;;-145.25;80.95
54146;BME280;40052;49.422;7.738;2022-09-23T05:34:09;75571.44;;;-145.25;81.66
54146;BME280;40052;49.422;7.738;2022-09-23T05:36:35;75557.41;;;-145.25;81.81
54146;BME280;40052;49.422;7.738;2022-09-23T05:39:04;75549.38;;;-145.25;81.78
54146;BME280;40052;49.422;7.738;2022-09-23T05:41:32;75553.38;;;-145.25;81.44
54146;BME280;40052;49.422;7.738;2022-09-23T05:43:58;75541.34;;;-145.25;80.22
54146;BME280;40052;49.422;7.738;2022-09-23T05:46:27;75535.34;;;-145.25;79.38
54146;BME280;40052;49.422;7.738;2022-09-23T05:48:57;75523.31;;;-145.25;79.13
54146;BME280;40052;49.422;7.738;2022-09-23T05:51:26;75515.31;;;-145.25;79.24
54146;BME280;40052;49.422;7.738;2022-09-23T05:53:53;75511.28;;;-145.25;79.54
54146;BME280;40052;49.422;7.738;2022-09-23T05:56:23;75517.31;;;-145.25;79.34
54146;BME280;40052;49.422;7.738;2022-09-23T05:58:49;75525.31;;;-145.25;79.78
54146;BME280;40052;49.422;7.738;2022-09-23T06:01:22;75531.34;;;-145.25;79.86
54146;BME280;40052;49.422;7.738;2022-09-23T06:03:53;75519.31;;;-145.25;79.73
54146;BME280;40052;49.422;7.738;2022-09-23T06:06:24;75533.34;;;-145.25;80.69
54146;BME280;40052;49.422;7.738;2022-09-23T06:08:50;75539.34;;;-145.25;80.97
54146;BME280;40052;49.422;7.738;2022-09-23T06:11:15;75535.34;;;-145.25;81.25
54146;BME280;40052;49.422;7.738;2022-09-23T06:13:45;75523.31;;;-145.25;80.56
54146;BME280;40052;49.422;7.738;2022-09-23T06:16:13;75509.28;;;-145.25;79.47
54146;BME280;40052;49.422;7.738;2022-09-23T06:18:44;75507.28;;;-145.25;78.83
54146;BME280;40052;49.422;7.738;2022-09-23T06:21:14;75499.28;;;-145.25;78.94
54146;BME280;40052;49.422;7.738;2022-09-23T06:23:43;75501.28;;;-145.25;78.99
54146;BME280;40052;49.422;7.738;2022-09-23T06:26:10;75489.25;;;-145.25;78.91
54146;BME280;40052;49.422;7.738;2022-09-23T06:28:43;75469.19;;;-145.25;78.58
54146;BME280;40052;49.422;7.738;2022-09-23T06:31:13;75463.19;;;-145.25;78.66
54146;BME280;40052;49.422;7.738;2022-09-23T06:33:43;75457.19;;;-145.25;78.42
54146;BME280;40052;49.422;7.738;2022-09-23T06:36:10;75451.16;;;-145.25;78.81
54146;BME280;40052;49.422;7.738;2022-09-23T06:38:42;75443.16;;;-145.25;78.81
54146;BME280;40052;49.422;7.738;2022-09-23T06:41:13;75431.13;;;-145.25;78.78
54146;BME280;40052;49.422;7.738;2022-09-23T06:43:41;75429.13;;;-145.25;78.43
54146;BME280;40052;49.422;7.738;2022-09-23T06:46:12;75427.09;;;-145.25;78.00
54146;BME280;40052;49.422;7.738;2022-09-23T06:48:39;75429.13;;;-145.25;78.05
54146;BME280;40052;49.422;7.738;2022-09-23T06:51:05;75417.09;;;-145.25;78.43
54146;BME280;40052;49.422;7.738;2022-09-23T06:53:33;75403.06;;;-145.25;77.93
54146;BME280;40052;49.422;7.738;2022-09-23T06:56:06;75405.06;;;-145.25;78.22
54146;BME280;40052;49.422;7.738;2022-09-23T06:58:34;75397.03;;;-145.25;78.77
54146;BME280;40052;49.422;7.738;2022-09-23T07:01:04;75383.00;;;-145.25;78.21
54146;BME280;40052;49.422;7.738;2022-09-23T07:03:31;75358.97;;;-145.25;77.63
54146;BME280;40052;49.422;7.738;2022-09-23T07:05:57;75358.97;;;-145.25;77.69
54146;BME280;40052;49.422;7.738;2022-09-23T07:08:23;75356.97;;;-145.25;77.75
54146;BME280;40052;49.422;7.738;2022-09-23T07:10:56;75334.91;;;-145.25;77.30
54146;BME280;40052;49.422;7.738;2022-09-23T07:13:23;75338.91;;;-145.25;77.06
54146;BME280;40052;49.422;7.738;2022-09-23T07:15:49;75344.94;;;-145.25;78.08
54146;BME280;40052;49.422;7.738;2022-09-23T07:18:16;75310.88;;;-145.25;77.50
54146;BME280;40052;49.422;7.738;2022-09-23T07:20:42;75310.88;;;-145.25;77.48
54146;BME280;40052;49.422;7.738;2022-09-23T07:23:07;75290.81;;;-145.25;76.92
54146;BME280;40052;49.422;7.738;2022-09-23T07:25:32;75296.84;;;-145.25;77.50
54146;BME280;40052;49.422;7.738;2022-09-23T07:27:58;75278.78;;;-145.25;77.43
54146;BME280;40052;49.422;7.738;2022-09-23T07:30:23;75276.78;;;-145.25;77.44
54146;BME280;40052;49.422;7.738;2022-09-23T07:32:49;75278.78;;;-145.25;77.56
54146;BME280;40052;49.422;7.738;2022-09-23T07:35:14;75280.78;;;-145.25;77.64
54146;BME280;40052;49.422;7.738;2022-09-23T07:37:42;75270.78;;;-145.25;78.05
54146;BME280;40052;49.422;7.738;2022-09-23T07:40:07;75256.75;;;-145.25;77.58
54146;BME280;40052;49.422;7.738;2022-09-23T07:42:36;75236.69;;;-145.25;77.28
54146;BME280;40052;49.422;7.738;2022-09-23T07:45:08;75266.78;;;-145.25;78.21
54146;BME280;40052;49.422;7.738;2022-09-23T07:47:34;75250.72;;;-145.25;78.58
54146;BME280;40052;49.422;7.738;2022-09-23T07:49:59;75224.69;;;-145.25;77.94
54146;BME280;40052;49.422;7.738;2022-09-23T07:52:25;75222.69;;;-145.25;77.48
54146;BME280;40052;49.422;7.738;2022-09-23T07:54:50;75212.66;;;-145.25;77.15
54146;BME280;40052;49.422;7.738;2022-09-23T07:57:16;75194.63;;;-145.25;76.45
54146;BME280;40052;49.422;7.738;2022-09-23T07:59:42;75202.63;;;-145.25;76.30
54146;BME280;40052;49.422;7.738;2022-09-23T08:02:10;75166.56;;;-145.25;76.25
54146;BME280;40052;49.422;7.738;2022-09-23T08:04:38;75144.50;;;-145.25;75.88
54146;BME280;40052;49.422;7.738;2022-09-23T08:07:04;75126.47;;;-145.25;74.76
54146;BME280;40052;49.422;7.738;2022-09-23T08:09:33;75086.38;;;-145.25;73.57
54146;BME280;40052;49.422;7.738;2022-09-23T08:12:00;75062.34;;;-145.25;72.25
54146;BME280;40052;49.422;7.738;2022-09-23T08:14:25;75066.34;;;-145.25;73.16
54146;BME280;40052;49.422;7.738;2022-09-23T08:16:51;75026.25;;;-145.25;72.90
54146;BME280;40052;49.422;7.738;2022-09-23T08:19:17;75040.28;;;-145.25;73.80
54146;BME280;40052;49.422;7.738;2022-09-23T08:21:45;75024.25;;;-145.25;73.55
54146;BME280;40052;49.422;7.738;2022-09-23T08:24:14;74970.16;;;-145.25;71.96
54146;BME280;40052;49.422;7.738;2022-09-23T08:26:43;74962.13;;;-145.25;71.46
54146;BME280;40052;49.422;7.738;2022-09-23T08:29:11;74934.06;;;-145.25;71.76
54146;BME280;40052;49.422;7.738;2022-09-23T08:31:37;74910.03;;;-145.25;70.55
54146;BME280;40052;49.422;7.738;2022-09-23T08:34:02;74883.97;;;-145.25;69.27
54146;BME280;40052;49.422;7.738;2022-09-23T08:36:30;74865.94;;;-145.25;68.41
54146;BME280;40052;49.422;7.738;2022-09-23T08:38:56;74835.88;;;-145.25;68.58
54146;BME280;40052;49.422;7.738;2022-09-23T08:44:22;74761.72;;;-145.25;67.24
54146;BME280;40052;49.422;7.738;2022-09-23T08:46:59;74729.66;;;-145.25;65.66
54146;BME280;40052;49.422;7.738;2022-09-23T08:49:34;74731.66;;;-145.25;65.58
54146;BME280;40052;49.422;7.738;2022-09-23T08:52:08;74721.66;;;-145.25;64.06
54146;BME280;40052;49.422;7.738;2022-09-23T08:54:40;74705.63;;;-145.25;64.12
54146;BME280;40052;49.422;7.738;2022-09-23T08:57:10;74685.56;;;-145.25;63.61
54146;BME280;40052;49.422;7.738;2022-09-23T08:59:46;74647.50;;;-145.25;62.68
54146;BME280;40052;49.422;7.738;2022-09-23T09:02:19;74615.44;;;-145.25;61.57
54146;BME280;40052;49.422;7.738;2022-09-23T09:04:54;74583.38;;;-145.25;61.53
54146;BME280;40052;49.422;7.738;2022-09-23T09:07:29;74555.31;;;-145.25;61.57
54146;BME280;40052;49.422;7.738;2022-09-23T09:12:51;74489.19;;;-145.25;58.92
54146;BME280;40052;49.422;7.738;2022-09-23T09:15:23;74445.09;;;-145.25;58.95
54146;BME280;40052;49.422;7.738;2022-09-23T09:18:11;74407.03;;;-145.25;57.44
54146;BME280;40052;49.422;7.738;2022-09-23T09:23:57;74334.91;;;-145.25;55.85
54146;BME280;40052;49.422;7.738;2022-09-23T09:26:31;74302.84;;;-145.25;54.74
54146;BME280;40052;49.422;7.738;2022-09-23T09:29:09;74292.81;;;-145.25;54.67
54146;BME280;40052;49.422;7.738;2022-09-23T09:31:43;74294.81;;;-145.25;53.72
54146;BME280;40052;49.422;7.738;2022-09-23T09:37:09;74260.75;;;-145.25;53.57
54146;BME280;40052;49.422;7.738;2022-09-23T09:39:37;74258.75;;;-145.25;53.54
54146;BME280;40052;49.422;7.738;2022-09-23T09:42:04;74236.72;;;-145.25;52.72
54146;BME280;40052;49.422;7.738;2022-09-23T09:44:45;74212.66;;;-145.25;52.65
54146;BME280;40052;49.422;7.738;2022-09-23T09:50:08;74106.47;;;-145.25;51.27
54146;BME280;40052;49.422;7.738;2022-09-23T09:52:37;74116.50;;;-145.25;51.86
54146;BME280;40052;49.422;7.738;2022-09-23T09:57:54;74090.44;;;-145.25;50.19
54146;BME280;40052;49.422;7.738;2022-09-23T10:03:04;74048.38;;;-145.25;50.78
54146;BME280;40052;49.422;7.738;2022-09-23T10:08:40;74000.28;;;-145.25;48.80
54146;BME280;40052;49.422;7.738;2022-09-23T10:16:28;73906.09;;;-145.25;47.77
54146;BME280;40052;49.422;7.738;2022-09-23T10:18:54;73938.16;;;-145.25;47.77
54146;BME280;40052;49.422;7.738;2022-09-23T10:21:24;73932.16;;;-145.25;48.57
54146;BME280;40052;49.422;7.738;2022-09-23T10:23:57;73906.09;;;-145.25;48.25
54146;BME280;40052;49.422;7.738;2022-09-23T10:26:33;73934.16;;;-145.25;48.65
54146;BME280;40052;49.422;7.738;2022-09-23T10:29:21;73912.13;;;-145.25;48.83
54146;BME280;40052;49.422;7.738;2022-09-23T10:34:45;73930.16;;;-145.25;49.96
54146;BME280;40052;49.422;7.738;2022-09-23T10:39:57;73938.16;;;-145.25;49.85
54146;BME280;40052;49.422;7.738;2022-09-23T10:45:49;73866.03;;;-145.25;50.32
54146;BME280;40052;49.422;7.738;2022-09-23T10:51:06;73950.19;;;-145.25;50.15
54146;BME280;40052;49.422;7.738;2022-09-23T11:00:20;73868.03;;;-145.25;51.31
54146;BME280;40052;49.422;7.738;2022-09-23T11:21:44;73850.00;;;-145.25;45.29
54146;BME280;40052;49.422;7.738;2022-09-23T11:35:30;73763.84;;;-145.25;44.01
54146;BME280;40052;49.422;7.738;2022-09-23T11:38:10;73850.00;;;-145.25;45.37
54146;BME280;40052;49.422;7.738;2022-09-23T11:40:41;73856.00;;;-145.25;46.42
54146;BME280;40052;49.422;7.738;2022-09-23T11:43:32;73833.97;;;-145.25;46.40
54146;BME280;40052;49.422;7.738;2022-09-23T11:46:20;73759.84;;;-145.25;45.61
54146;BME280;40052;49.422;7.738;2022-09-23T11:48:57;73759.84;;;-145.25;44.29
54146;BME280;40052;49.422;7.738;2022-09-23T11:54:18;73755.84;;;-145.25;45.05
54146;BME280;40052;49.422;7.738;2022-09-23T11:56:53;73727.78;;;-145.25;47.65
54146;BME280;40052;49.422;7.738;2022-09-23T11:59:35;73743.81;;;-145.25;44.26
54146;BME280;40052;49.422;7.738;2022-09-23T12:04:41;73745.81;;;-145.25;43.72
54146;BME280;40052;49.422;7.738;2022-09-23T12:07:15;73741.81;;;-145.25;45.01
54146;BME280;40052;49.422;7.738;2022-09-23T12:12:28;73731.78;;;-145.25;44.84
54146;BME280;40052;49.422;7.738;2022-09-23T12:26:22;73815.94;;;-145.25;44.44
54146;BME280;40052;49.422;7.738;2022-09-23T12:28:53;73785.88;;;-145.25;46.45
54146;BME280;40052;49.422;7.738;2022-09-23T12:31:24;73811.94;;;-145.25;44.21
54146;BME280;40052;49.422;7.738;2022-09-23T12:34:00;73813.94;;;-145.25;47.53
54146;BME280;40052;49.422;7.738;2022-09-23T12:36:32;73819.94;;;-145.25;47.36
54146;BME280;40052;49.422;7.738;2022-09-23T12:39:06;73844.00;;;-145.25;45.25
54146;BME280;40052;49.422;7.738;2022-09-23T12:41:41;73858.03;;;-145.25;44.96
54146;BME280;40052;49.422;7.738;2022-09-23T12:46:37;73874.03;;;-145.25;48.21
54146;BME280;40052;49.422;7.738;2022-09-23T12:49:22;73860.03;;;-145.25;45.83
54146;BME280;40052;49.422;7.738;2022-09-23T12:54:46;73900.09;;;-145.25;45.42
54146;BME280;40052;49.422;7.738;2022-09-23T12:57:13;73856.00;;;-145.25;49.15
54146;BME280;40052;49.422;7.738;2022-09-23T13:02:49;73765.84;;;-145.25;45.69
54146;BME280;40052;49.422;7.738;2022-09-23T13:05:44;73741.81;;;-145.25;43.78
54146;BME280;40052;49.422;7.738;2022-09-23T13:08:31;73733.81;;;-145.25;43.66
54146;BME280;40052;49.422;7.738;2022-09-23T13:11:01;73713.75;;;-145.25;43.77
54146;BME280;40052;49.422;7.738;2022-09-23T13:18:57;73801.91;;;-145.25;43.41
54146;BME280;40052;49.422;7.738;2022-09-23T13:26:43;73783.88;;;-145.25;41.38
54146;BME280;40052;49.422;7.738;2022-09-23T13:29:21;73745.81;;;-145.25;41.24
54146;BME280;40052;49.422;7.738;2022-09-23T13:31:50;73787.91;;;-145.25;43.99
54146;BME280;40052;49.422;7.738;2022-09-23T13:34:20;73789.91;;;-145.25;42.74
54146;BME280;40052;49.422;7.738;2022-09-23T13:36:47;73787.91;;;-145.25;42.60
54146;BME280;40052;49.422;7.738;2022-09-23T13:39:22;73783.88;;;-145.25;43.07
54146;BME280;40052;49.422;7.738;2022-09-23T13:41:51;73727.78;;;-145.25;41.87
54146;BME280;40052;49.422;7.738;2022-09-23T13:44:20;73639.63;;;-145.25;42.63
54146;BME280;40052;49.422;7.738;2022-09-23T13:46:55;73647.66;;;-145.25;41.99
54146;BME280;40052;49.422;7.738;2022-09-23T13:49:32;73635.63;;;-145.25;41.14
54146;BME280;40052;49.422;7.738;2022-09-23T13:51:59;73601.56;;;-145.25;40.39
54146;BME280;40052;49.422;7.738;2022-09-23T13:54:48;73529.44;;;-145.25;40.62
54146;BME280;40052;49.422;7.738;2022-09-23T13:57:25;73421.28;;;-145.25;41.19
54146;BME280;40052;49.422;7.738;2022-09-23T13:59:51;73507.41;;;-145.25;40.16
54146;BME280;40052;49.422;7.738;2022-09-23T14:02:16;73485.38;;;-145.25;40.02
54146;BME280;40052;49.422;7.738;2022-09-23T14:04:42;73559.50;;;-145.25;40.32
54146;BME280;40052;49.422;7.738;2022-09-23T14:07:12;73591.56;;;-145.25;41.06
54146;BME280;40052;49.422;7.738;2022-09-23T14:09:56;73593.56;;;-145.25;41.11
54146;BME280;40052;49.422;7.738;2022-09-23T14:12:24;73645.66;;;-145.25;41.04
54146;BME280;40052;49.422;7.738;2022-09-23T14:14:52;73663.69;;;-145.25;42.41
54146;BME280;40052;49.422;7.738;2022-09-23T14:17:21;73705.75;;;-145.25;42.65
54146;BME280;40052;49.422;7.738;2022-09-23T14:19:48;73721.78;;;-145.25;42.51
54146;BME280;40052;49.422;7.738;2022-09-23T14:22:22;73735.81;;;-145.25;43.68
54146;BME280;40052;49.422;7.738;2022-09-23T14:24:51;73761.84;;;-145.25;43.26
54146;BME280;40052;49.422;7.738;2022-09-23T14:29:48;73777.88;;;-145.25;44.00
54146;BME280;40052;49.422;7.738;2022-09-23T14:32:17;73795.91;;;-145.25;44.89
54146;BME280;40052;49.422;7.738;2022-09-23T14:39:59;73823.97;;;-145.25;45.18
54146;BME280;40052;49.422;7.738;2022-09-23T14:42:36;73852.00;;;-145.25;46.37
54146;BME280;40052;49.422;7.738;2022-09-23T14:45:08;73864.03;;;-145.25;46.31
54146;BME280;40052;49.422;7.738;2022-09-23T14:47:37;73864.03;;;-145.25;46.75
54146;BME280;40052;49.422;7.738;2022-09-23T14:50:25;73870.03;;;-145.25;46.75
54146;BME280;40052;49.422;7.738;2022-09-23T14:53:04;73874.03;;;-145.25;47.23
54146;BME280;40052;49.422;7.738;2022-09-23T14:55:33;73878.06;;;-145.25;47.17
54146;BME280;40052;49.422;7.738;2022-09-23T14:58:04;73884.06;;;-145.25;46.07
54146;BME280;40052;49.422;7.738;2022-09-23T15:00:37;73886.06;;;-145.25;46.81
54146;BME280;40052;49.422;7.738;2022-09-23T15:03:17;73886.06;;;-145.25;47.63
54146;BME280;40052;49.422;7.738;2022-09-23T15:05:46;73890.06;;;-145.25;47.93
54146;BME280;40052;49.422;7.738;2022-09-23T15:08:20;73892.06;;;-145.25;48.29
54146;BME280;40052;49.422;7.738;2022-09-23T15:10:50;73892.06;;;-145.25;48.93
54146;BME280;40052;49.422;7.738;2022-09-23T15:13:16;73908.09;;;-145.25;48.87
54146;BME280;40052;49.422;7.738;2022-09-23T15:15:42;73892.06;;;-145.25;48.88
54146;BME280;40052;49.422;7.738;2022-09-23T15:18:19;73902.09;;;-145.25;48.83
54146;BME280;40052;49.422;7.738;2022-09-23T15:20:54;73908.09;;;-145.25;49.46
54146;BME280;40052;49.422;7.738;2022-09-23T15:25:57;73902.09;;;-145.25;49.70
54146;BME280;40052;49.422;7.738;2022-09-23T15:28:29;73894.09;;;-145.25;48.98
54146;BME280;40052;49.422;7.738;2022-09-23T15:30:57;73896.09;;;-145.25;50.37
54146;BME280;40052;49.422;7.738;2022-09-23T15:33:22;73906.09;;;-145.25;50.31
54146;BME280;40052;49.422;7.738;2022-09-23T15:35:53;73904.09;;;-145.25;50.24
54146;BME280;40052;49.422;7.738;2022-09-23T15:38:19;73900.09;;;-145.25;51.52
54146;BME280;40052;49.422;7.738;2022-09-23T15:40:45;73896.09;;;-145.25;50.71
54146;BME280;40052;49.422;7.738;2022-09-23T15:43:15;73896.09;;;-145.25;50.85
54146;BME280;40052;49.422;7.738;2022-09-23T15:45:45;73900.09;;;-145.25;51.29
54146;BME280;40052;49.422;7.738;2022-09-23T15:48:22;73912.13;;;-145.25;51.10
54146;BME280;40052;49.422;7.738;2022-09-23T15:50:49;73908.09;;;-145.25;52.22
54146;BME280;40052;49.422;7.738;2022-09-23T15:53:19;73906.09;;;-145.25;51.15
54146;BME280;40052;49.422;7.738;2022-09-23T15:55:48;73912.13;;;-145.25;50.31
54146;BME280;40052;49.422;7.738;2022-09-23T15:58:18;73920.13;;;-145.25;51.94